sensor_id;sensor_type;location;lat;lon;timestamp;P1;durP1;ratioP1;P2;durP2;ratioP2
1721;SDS011;858;53.190;8.596;2022-08-19T00:01:16;15.80;;;13.02;;
1721;SDS011;858;53.190;8.596;2022-08-19T00:03:43;20.77;;;14.35;;
1721;SDS011;858;53.190;8.596;2022-08-19T00:06:11;17.80;;;13.00;;
1721;SDS011;858;53.190;8.596;2022-08-19T00:08:37;18.02;;;14.15;;
1721;SDS011;858;53.190;8.596;2022-08-19T00:11:04;15.82;;;12.73;;
1721;SDS011;858;53.190;8.596;2022-08-19T00:13:32;19.25;;;13.63;;
1721;SDS011;858;53.190;8.596;2022-08-19T00:15:59;17.77;;;13.50;;
1721;SDS011;858;53.190;8.596;2022-08-19T00:18:25;17.60;;;14.00;;
1721;SDS011;858;53.190;8.596;2022-08-19T00:20:52;16.92;;;13.73;;
1721;SDS011;858;53.190;8.596;2022-08-19T00:23:23;17.27;;;13.00;;
1721;SDS011;858;53.190;8.596;2022-08-19T00:25:49;16.60;;;12.48;;
1721;SDS011;858;53.190;8.596;2022-08-19T00:28:15;17.23;;;12.15;;
1721;SDS011;858;53.190;8.596;2022-08-19T00:30:42;15.43;;;12.70;;
1721;SDS011;858;53.190;8.596;2022-08-19T00:33:11;18.05;;;13.25;;
1721;SDS011;858;53.190;8.596;2022-08-19T00:35:38;17.88;;;12.13;;
1721;SDS011;858;53.190;8.596;2022-08-19T00:38:05;18.58;;;12.90;;
1721;SDS011;858;53.190;8.596;2022-08-19T00:40:34;14.45;;;11.25;;
1721;SDS011;858;53.190;8.596;2022-08-19T00:43:01;15.38;;;12.05;;
1721;SDS011;858;53.190;8.596;2022-08-19T00:45:33;13.57;;;12.27;;
1721;SDS011;858;53.190;8.596;2022-08-19T00:48:01;13.27;;;10.48;;
1721;SDS011;858;53.190;8.596;2022-08-19T00:50:29;17.40;;;13.07;;
1721;SDS011;858;53.190;8.596;2022-08-19T00:53:01;15.88;;;13.05;;
1721;SDS011;858;53.190;8.596;2022-08-19T00:55:29;20.33;;;12.05;;
1721;SDS011;858;53.190;8.596;2022-08-19T00:58:03;14.52;;;12.07;;
1721;SDS011;858;53.190;8.596;2022-08-19T01:00:30;13.25;;;11.00;;
1721;SDS011;858;53.190;8.596;2022-08-19T01:02:58;11.48;;;9.80;;
1721;SDS011;858;53.190;8.596;2022-08-19T01:05:28;15.68;;;11.50;;
1721;SDS011;858;53.190;8.596;2022-08-19T01:07:55;13.73;;;11.38;;
1721;SDS011;858;53.190;8.596;2022-08-19T01:10:23;13.55;;;11.25;;
1721;SDS011;858;53.190;8.596;2022-08-19T01:12:50;15.20;;;11.38;;
1721;SDS011;858;53.190;8.596;2022-08-19T01:15:20;13.70;;;10.35;;
1721;SDS011;858;53.190;8.596;2022-08-19T01:17:47;13.95;;;11.05;;
1721;SDS011;858;53.190;8.596;2022-08-19T01:20:16;13.77;;;10.48;;
1721;SDS011;858;53.190;8.596;2022-08-19T01:22:47;13.52;;;10.38;;
1721;SDS011;858;53.190;8.596;2022-08-19T01:25:15;11.73;;;10.20;;
1721;SDS011;858;53.190;8.596;2022-08-19T01:27:44;10.50;;;8.50;;
1721;SDS011;858;53.190;8.596;2022-08-19T01:30:12;13.67;;;10.47;;
1721;SDS011;858;53.190;8.596;2022-08-19T01:32:38;12.60;;;10.18;;
1721;SDS011;858;53.190;8.596;2022-08-19T01:35:05;13.07;;;11.20;;
1721;SDS011;858;53.190;8.596;2022-08-19T01:37:41;13.50;;;11.52;;
1721;SDS011;858;53.190;8.596;2022-08-19T01:40:12;15.00;;;10.20;;
1721;SDS011;858;53.190;8.596;2022-08-19T01:42:41;12.77;;;11.35;;
1721;SDS011;858;53.190;8.596;2022-08-19T01:45:09;11.75;;;10.43;;
1721;SDS011;858;53.190;8.596;2022-08-19T01:47:35;12.32;;;10.80;;
1721;SDS011;858;53.190;8.596;2022-08-19T01:50:04;13.35;;;9.85;;
1721;SDS011;858;53.190;8.596;2022-08-19T01:52:31;14.00;;;10.95;;
1721;SDS011;858;53.190;8.596;2022-08-19T01:54:57;14.43;;;11.10;;
1721;SDS011;858;53.190;8.596;2022-08-19T01:57:25;15.88;;;11.52;;
1721;SDS011;858;53.190;8.596;2022-08-19T01:59:54;12.63;;;10.23;;
1721;SDS011;858;53.190;8.596;2022-08-19T02:02:20;15.20;;;12.40;;
1721;SDS011;858;53.190;8.596;2022-08-19T02:04:47;16.83;;;11.90;;
1721;SDS011;858;53.190;8.596;2022-08-19T02:07:13;16.15;;;13.82;;
1721;SDS011;858;53.190;8.596;2022-08-19T02:09:40;19.52;;;13.75;;
1721;SDS011;858;53.190;8.596;2022-08-19T02:12:07;16.45;;;13.00;;
1721;SDS011;858;53.190;8.596;2022-08-19T02:14:35;20.35;;;15.95;;
1721;SDS011;858;53.190;8.596;2022-08-19T02:17:02;17.55;;;13.98;;
1721;SDS011;858;53.190;8.596;2022-08-19T02:19:32;20.63;;;14.70;;
1721;SDS011;858;53.190;8.596;2022-08-19T02:21:59;18.70;;;14.63;;
1721;SDS011;858;53.190;8.596;2022-08-19T02:24:25;16.10;;;13.17;;
1721;SDS011;858;53.190;8.596;2022-08-19T02:26:52;17.05;;;12.70;;
1721;SDS011;858;53.190;8.596;2022-08-19T02:29:20;18.95;;;12.55;;
1721;SDS011;858;53.190;8.596;2022-08-19T02:31:48;17.70;;;12.73;;
1721;SDS011;858;53.190;8.596;2022-08-19T02:34:16;16.80;;;12.57;;
1721;SDS011;858;53.190;8.596;2022-08-19T02:36:50;14.77;;;10.80;;
1721;SDS011;858;53.190;8.596;2022-08-19T02:39:17;15.77;;;12.13;;
1721;SDS011;858;53.190;8.596;2022-08-19T02:41:42;12.98;;;10.70;;
1721;SDS011;858;53.190;8.596;2022-08-19T02:44:09;14.85;;;11.20;;
1721;SDS011;858;53.190;8.596;2022-08-19T02:46:35;14.80;;;11.25;;
1721;SDS011;858;53.190;8.596;2022-08-19T02:49:05;14.80;;;11.85;;
1721;SDS011;858;53.190;8.596;2022-08-19T02:51:33;11.95;;;8.57;;
1721;SDS011;858;53.190;8.596;2022-08-19T02:54:02;12.90;;;8.50;;
1721;SDS011;858;53.190;8.596;2022-08-19T02:56:29;9.73;;;8.73;;
1721;SDS011;858;53.190;8.596;2022-08-19T02:59:03;10.35;;;8.00;;
1721;SDS011;858;53.190;8.596;2022-08-19T03:01:36;11.02;;;7.65;;
1721;SDS011;858;53.190;8.596;2022-08-19T03:04:07;11.55;;;8.48;;
1721;SDS011;858;53.190;8.596;2022-08-19T03:06:35;11.82;;;8.15;;
1721;SDS011;858;53.190;8.596;2022-08-19T03:09:02;10.55;;;8.63;;
1721;SDS011;858;53.190;8.596;2022-08-19T03:11:29;10.88;;;8.90;;
1721;SDS011;858;53.190;8.596;2022-08-19T03:13:57;9.00;;;8.10;;
1721;SDS011;858;53.190;8.596;2022-08-19T03:16:25;9.02;;;7.80;;
1721;SDS011;858;53.190;8.596;2022-08-19T03:18:52;11.43;;;8.20;;
1721;SDS011;858;53.190;8.596;2022-08-19T03:21:21;12.95;;;9.82;;
1721;SDS011;858;53.190;8.596;2022-08-19T03:23:49;12.48;;;10.35;;
1721;SDS011;858;53.190;8.596;2022-08-19T03:26:17;14.48;;;12.07;;
1721;SDS011;858;53.190;8.596;2022-08-19T03:28:44;13.32;;;11.18;;
1721;SDS011;858;53.190;8.596;2022-08-19T03:31:15;12.93;;;11.25;;
1721;SDS011;858;53.190;8.596;2022-08-19T03:33:42;13.80;;;11.23;;
1721;SDS011;858;53.190;8.596;2022-08-19T03:36:12;13.65;;;11.80;;
1721;SDS011;858;53.190;8.596;2022-08-19T03:38:42;14.23;;;12.05;;
1721;SDS011;858;53.190;8.596;2022-08-19T03:41:10;15.30;;;12.90;;
1721;SDS011;858;53.190;8.596;2022-08-19T03:43:37;15.70;;;13.98;;
1721;SDS011;858;53.190;8.596;2022-08-19T03:46:06;19.38;;;14.77;;
1721;SDS011;858;53.190;8.596;2022-08-19T03:48:36;16.20;;;14.02;;
1721;SDS011;858;53.190;8.596;2022-08-19T03:51:03;16.77;;;13.70;;
1721;SDS011;858;53.190;8.596;2022-08-19T03:53:31;17.45;;;13.18;;
1721;SDS011;858;53.190;8.596;2022-08-19T03:55:59;15.80;;;13.07;;
1721;SDS011;858;53.190;8.596;2022-08-19T03:58:26;13.88;;;11.23;;
1721;SDS011;858;53.190;8.596;2022-08-19T04:00:54;13.27;;;11.35;;
1721;SDS011;858;53.190;8.596;2022-08-19T04:03:21;14.48;;;12.15;;
1721;SDS011;858;53.190;8.596;2022-08-19T04:05:49;19.20;;;14.07;;
1721;SDS011;858;53.190;8.596;2022-08-19T04:08:18;16.30;;;13.30;;
1721;SDS011;858;53.190;8.596;2022-08-19T04:10:47;18.35;;;13.90;;
1721;SDS011;858;53.190;8.596;2022-08-19T04:13:18;17.80;;;14.90;;
1721;SDS011;858;53.190;8.596;2022-08-19T04:15:47;18.40;;;14.57;;
1721;SDS011;858;53.190;8.596;2022-08-19T04:18:14;15.60;;;13.90;;
1721;SDS011;858;53.190;8.596;2022-08-19T04:20:43;21.15;;;16.33;;
1721;SDS011;858;53.190;8.596;2022-08-19T04:23:11;22.17;;;17.33;;
1721;SDS011;858;53.190;8.596;2022-08-19T04:25:38;23.63;;;18.30;;
1721;SDS011;858;53.190;8.596;2022-08-19T04:28:05;24.63;;;19.30;;
1721;SDS011;858;53.190;8.596;2022-08-19T04:30:38;30.50;;;21.88;;
1721;SDS011;858;53.190;8.596;2022-08-19T04:33:05;28.50;;;21.95;;
1721;SDS011;858;53.190;8.596;2022-08-19T04:35:34;25.92;;;20.08;;
1721;SDS011;858;53.190;8.596;2022-08-19T04:38:01;29.45;;;22.65;;
1721;SDS011;858;53.190;8.596;2022-08-19T04:40:27;31.92;;;22.60;;
1721;SDS011;858;53.190;8.596;2022-08-19T04:43:11;36.67;;;23.85;;
1721;SDS011;858;53.190;8.596;2022-08-19T04:45:40;32.10;;;22.20;;
1721;SDS011;858;53.190;8.596;2022-08-19T04:48:06;29.60;;;22.10;;
1721;SDS011;858;53.190;8.596;2022-08-19T04:50:35;32.42;;;22.48;;
1721;SDS011;858;53.190;8.596;2022-08-19T04:53:02;25.50;;;18.80;;
1721;SDS011;858;53.190;8.596;2022-08-19T04:55:30;26.13;;;20.08;;
1721;SDS011;858;53.190;8.596;2022-08-19T04:57:56;28.95;;;22.15;;
1721;SDS011;858;53.190;8.596;2022-08-19T05:00:23;28.97;;;21.83;;
1721;SDS011;858;53.190;8.596;2022-08-19T05:02:51;30.27;;;23.35;;
1721;SDS011;858;53.190;8.596;2022-08-19T05:05:20;31.75;;;23.17;;
1721;SDS011;858;53.190;8.596;2022-08-19T05:07:46;28.35;;;22.13;;
1721;SDS011;858;53.190;8.596;2022-08-19T05:10:12;26.75;;;20.73;;
1721;SDS011;858;53.190;8.596;2022-08-19T05:12:39;28.33;;;21.17;;
1721;SDS011;858;53.190;8.596;2022-08-19T05:15:07;26.83;;;20.95;;
1721;SDS011;858;53.190;8.596;2022-08-19T05:17:34;29.73;;;22.83;;
1721;SDS011;858;53.190;8.596;2022-08-19T05:20:03;26.45;;;20.48;;
1721;SDS011;858;53.190;8.596;2022-08-19T05:22:47;27.57;;;20.57;;
1721;SDS011;858;53.190;8.596;2022-08-19T05:25:15;27.25;;;21.30;;
1721;SDS011;858;53.190;8.596;2022-08-19T05:27:43;24.95;;;19.98;;
1721;SDS011;858;53.190;8.596;2022-08-19T05:30:10;23.40;;;19.40;;
1721;SDS011;858;53.190;8.596;2022-08-19T05:32:36;26.60;;;21.00;;
1721;SDS011;858;53.190;8.596;2022-08-19T05:35:05;24.95;;;19.00;;
1721;SDS011;858;53.190;8.596;2022-08-19T05:37:33;26.30;;;19.10;;
1721;SDS011;858;53.190;8.596;2022-08-19T05:39:59;24.08;;;18.85;;
1721;SDS011;858;53.190;8.596;2022-08-19T05:42:26;22.27;;;18.10;;
1721;SDS011;858;53.190;8.596;2022-08-19T05:44:52;21.27;;;17.73;;
1721;SDS011;858;53.190;8.596;2022-08-19T05:47:19;24.73;;;17.98;;
1721;SDS011;858;53.190;8.596;2022-08-19T05:49:45;23.20;;;17.55;;
1721;SDS011;858;53.190;8.596;2022-08-19T05:52:13;22.25;;;17.70;;
1721;SDS011;858;53.190;8.596;2022-08-19T05:54:41;23.98;;;19.40;;
1721;SDS011;858;53.190;8.596;2022-08-19T05:57:10;22.65;;;18.75;;
1721;SDS011;858;53.190;8.596;2022-08-19T05:59:36;24.58;;;19.08;;
1721;SDS011;858;53.190;8.596;2022-08-19T06:02:03;20.73;;;17.75;;
1721;SDS011;858;53.190;8.596;2022-08-19T06:04:32;23.58;;;18.10;;
1721;SDS011;858;53.190;8.596;2022-08-19T06:06:59;22.02;;;16.98;;
1721;SDS011;858;53.190;8.596;2022-08-19T06:09:28;20.37;;;16.40;;
1721;SDS011;858;53.190;8.596;2022-08-19T06:11:55;21.23;;;17.70;;
1721;SDS011;858;53.190;8.596;2022-08-19T06:14:27;19.52;;;17.25;;
1721;SDS011;858;53.190;8.596;2022-08-19T06:16:56;19.70;;;16.20;;
1721;SDS011;858;53.190;8.596;2022-08-19T06:19:24;18.58;;;15.57;;
1721;SDS011;858;53.190;8.596;2022-08-19T06:21:51;19.70;;;15.20;;
1721;SDS011;858;53.190;8.596;2022-08-19T06:24:19;20.27;;;17.08;;
1721;SDS011;858;53.190;8.596;2022-08-19T06:26:51;18.30;;;15.57;;
1721;SDS011;858;53.190;8.596;2022-08-19T06:29:18;18.05;;;14.60;;
1721;SDS011;858;53.190;8.596;2022-08-19T06:31:49;21.70;;;15.70;;
1721;SDS011;858;53.190;8.596;2022-08-19T06:34:16;19.10;;;14.32;;
1721;SDS011;858;53.190;8.596;2022-08-19T06:36:43;16.55;;;13.95;;
1721;SDS011;858;53.190;8.596;2022-08-19T06:39:11;14.70;;;13.10;;
1721;SDS011;858;53.190;8.596;2022-08-19T06:41:40;15.32;;;12.05;;
1721;SDS011;858;53.190;8.596;2022-08-19T06:44:09;16.20;;;12.73;;
1721;SDS011;858;53.190;8.596;2022-08-19T06:46:36;16.27;;;13.15;;
1721;SDS011;858;53.190;8.596;2022-08-19T06:49:03;13.75;;;11.38;;
1721;SDS011;858;53.190;8.596;2022-08-19T06:51:30;11.30;;;9.60;;
1721;SDS011;858;53.190;8.596;2022-08-19T06:53:57;9.05;;;7.85;;
1721;SDS011;858;53.190;8.596;2022-08-19T06:56:25;9.30;;;8.40;;
1721;SDS011;858;53.190;8.596;2022-08-19T06:58:55;10.23;;;7.70;;
1721;SDS011;858;53.190;8.596;2022-08-19T07:01:23;12.05;;;7.40;;
1721;SDS011;858;53.190;8.596;2022-08-19T07:03:50;7.82;;;7.07;;
1721;SDS011;858;53.190;8.596;2022-08-19T07:06:17;9.83;;;7.40;;
1721;SDS011;858;53.190;8.596;2022-08-19T07:08:45;7.70;;;6.90;;
1721;SDS011;858;53.190;8.596;2022-08-19T07:11:14;7.10;;;6.50;;
1721;SDS011;858;53.190;8.596;2022-08-19T07:13:40;6.90;;;5.95;;
1721;SDS011;858;53.190;8.596;2022-08-19T07:16:09;8.57;;;7.15;;
1721;SDS011;858;53.190;8.596;2022-08-19T07:18:37;7.38;;;6.68;;
1721;SDS011;858;53.190;8.596;2022-08-19T07:21:04;8.40;;;7.10;;
1721;SDS011;858;53.190;8.596;2022-08-19T07:23:30;6.75;;;5.80;;
1721;SDS011;858;53.190;8.596;2022-08-19T07:25:57;7.03;;;5.55;;
1721;SDS011;858;53.190;8.596;2022-08-19T07:28:23;6.60;;;5.60;;
1721;SDS011;858;53.190;8.596;2022-08-19T07:30:50;9.52;;;5.50;;
1721;SDS011;858;53.190;8.596;2022-08-19T07:33:17;5.80;;;5.30;;
1721;SDS011;858;53.190;8.596;2022-08-19T07:35:45;7.32;;;5.30;;
1721;SDS011;858;53.190;8.596;2022-08-19T07:38:12;6.40;;;5.07;;
1721;SDS011;858;53.190;8.596;2022-08-19T07:40:40;5.88;;;4.32;;
1721;SDS011;858;53.190;8.596;2022-08-19T07:43:08;6.88;;;4.47;;
1721;SDS011;858;53.190;8.596;2022-08-19T07:45:34;5.35;;;4.93;;
1721;SDS011;858;53.190;8.596;2022-08-19T07:48:01;4.00;;;3.60;;
1721;SDS011;858;53.190;8.596;2022-08-19T07:50:28;4.05;;;2.90;;
1721;SDS011;858;53.190;8.596;2022-08-19T07:52:56;4.38;;;3.40;;
1721;SDS011;858;53.190;8.596;2022-08-19T07:55:23;4.65;;;3.60;;
1721;SDS011;858;53.190;8.596;2022-08-19T07:57:50;4.65;;;3.20;;
1721;SDS011;858;53.190;8.596;2022-08-19T08:00:18;4.38;;;3.30;;
1721;SDS011;858;53.190;8.596;2022-08-19T08:02:45;2.80;;;2.60;;
1721;SDS011;858;53.190;8.596;2022-08-19T08:05:12;4.18;;;2.92;;
1721;SDS011;858;53.190;8.596;2022-08-19T08:07:57;3.30;;;3.00;;
1721;SDS011;858;53.190;8.596;2022-08-19T08:10:41;4.60;;;3.30;;
1721;SDS011;858;53.190;8.596;2022-08-19T08:13:07;4.87;;;3.60;;
1721;SDS011;858;53.190;8.596;2022-08-19T08:15:34;3.65;;;3.35;;
1721;SDS011;858;53.190;8.596;2022-08-19T08:18:02;3.63;;;3.33;;
1721;SDS011;858;53.190;8.596;2022-08-19T08:20:28;5.82;;;5.30;;
1721;SDS011;858;53.190;8.596;2022-08-19T08:22:56;7.40;;;6.18;;
1721;SDS011;858;53.190;8.596;2022-08-19T08:25:40;6.30;;;5.70;;
1721;SDS011;858;53.190;8.596;2022-08-19T08:28:07;6.53;;;5.70;;
1721;SDS011;858;53.190;8.596;2022-08-19T08:30:34;6.53;;;5.85;;
1721;SDS011;858;53.190;8.596;2022-08-19T08:33:02;6.30;;;5.20;;
1721;SDS011;858;53.190;8.596;2022-08-19T08:35:28;5.07;;;3.65;;
1721;SDS011;858;53.190;8.596;2022-08-19T08:37:54;4.80;;;4.40;;
1721;SDS011;858;53.190;8.596;2022-08-19T08:40:23;5.22;;;3.80;;
1721;SDS011;858;53.190;8.596;2022-08-19T08:42:54;4.65;;;3.90;;
1721;SDS011;858;53.190;8.596;2022-08-19T08:45:23;3.63;;;2.63;;
1721;SDS011;858;53.190;8.596;2022-08-19T08:47:52;3.00;;;2.70;;
1721;SDS011;858;53.190;8.596;2022-08-19T08:50:22;3.50;;;2.90;;
1721;SDS011;858;53.190;8.596;2022-08-19T08:52:50;3.20;;;2.75;;
1721;SDS011;858;53.190;8.596;2022-08-19T08:55:19;5.00;;;3.17;;
1721;SDS011;858;53.190;8.596;2022-08-19T08:57:50;2.95;;;2.70;;
1721;SDS011;858;53.190;8.596;2022-08-19T09:00:20;4.43;;;3.33;;
1721;SDS011;858;53.190;8.596;2022-08-19T09:02:47;3.75;;;3.20;;
1721;SDS011;858;53.190;8.596;2022-08-19T09:05:14;5.60;;;4.00;;
1721;SDS011;858;53.190;8.596;2022-08-19T09:07:43;5.80;;;4.15;;
1721;SDS011;858;53.190;8.596;2022-08-19T09:10:15;4.30;;;3.90;;
1721;SDS011;858;53.190;8.596;2022-08-19T09:12:45;4.15;;;2.92;;
1721;SDS011;858;53.190;8.596;2022-08-19T09:15:17;5.47;;;3.17;;
1721;SDS011;858;53.190;8.596;2022-08-19T09:17:44;3.78;;;2.80;;
1721;SDS011;858;53.190;8.596;2022-08-19T09:20:14;4.22;;;3.40;;
1721;SDS011;858;53.190;8.596;2022-08-19T09:22:41;3.50;;;3.20;;
1721;SDS011;858;53.190;8.596;2022-08-19T09:25:09;3.40;;;3.10;;
1721;SDS011;858;53.190;8.596;2022-08-19T09:27:37;4.80;;;3.38;;
1721;SDS011;858;53.190;8.596;2022-08-19T09:30:04;4.07;;;3.10;;
1721;SDS011;858;53.190;8.596;2022-08-19T09:32:32;4.85;;;3.85;;
1721;SDS011;858;53.190;8.596;2022-08-19T09:34:58;8.40;;;3.35;;
1721;SDS011;858;53.190;8.596;2022-08-19T09:37:25;2.60;;;2.40;;
1721;SDS011;858;53.190;8.596;2022-08-19T09:39:52;3.10;;;1.92;;
1721;SDS011;858;53.190;8.596;2022-08-19T09:42:19;3.80;;;2.30;;
1721;SDS011;858;53.190;8.596;2022-08-19T09:44:45;2.50;;;2.30;;
1721;SDS011;858;53.190;8.596;2022-08-19T09:47:12;2.95;;;2.13;;
1721;SDS011;858;53.190;8.596;2022-08-19T09:49:40;4.30;;;1.90;;
1721;SDS011;858;53.190;8.596;2022-08-19T09:52:08;4.47;;;2.10;;
1721;SDS011;858;53.190;8.596;2022-08-19T09:54:35;4.75;;;2.70;;
1721;SDS011;858;53.190;8.596;2022-08-19T09:57:02;3.95;;;2.70;;
1721;SDS011;858;53.190;8.596;2022-08-19T09:59:28;3.40;;;2.70;;
1721;SDS011;858;53.190;8.596;2022-08-19T10:01:55;3.00;;;2.60;;
1721;SDS011;858;53.190;8.596;2022-08-19T10:04:22;2.90;;;2.70;;
1721;SDS011;858;53.190;8.596;2022-08-19T10:07:10;2.85;;;2.65;;
1721;SDS011;858;53.190;8.596;2022-08-19T10:09:37;3.25;;;2.13;;
1721;SDS011;858;53.190;8.596;2022-08-19T10:12:04;1.10;;;1.00;;
1721;SDS011;858;53.190;8.596;2022-08-19T10:14:30;1.70;;;1.60;;
1721;SDS011;858;53.190;8.596;2022-08-19T10:16:57;1.90;;;1.70;;
1721;SDS011;858;53.190;8.596;2022-08-19T10:19:25;1.70;;;1.20;;
1721;SDS011;858;53.190;8.596;2022-08-19T10:21:53;1.95;;;1.17;;
1721;SDS011;858;53.190;8.596;2022-08-19T10:24:21;1.70;;;1.10;;
1721;SDS011;858;53.190;8.596;2022-08-19T10:26:49;1.80;;;1.13;;
1721;SDS011;858;53.190;8.596;2022-08-19T10:29:15;2.70;;;1.30;;
1721;SDS011;858;53.190;8.596;2022-08-19T10:31:42;1.38;;;0.90;;
1721;SDS011;858;53.190;8.596;2022-08-19T10:34:08;1.38;;;0.90;;
1721;SDS011;858;53.190;8.596;2022-08-19T10:36:36;1.10;;;1.00;;
1721;SDS011;858;53.190;8.596;2022-08-19T10:39:04;1.63;;;1.20;;
1721;SDS011;858;53.190;8.596;2022-08-19T10:41:33;1.60;;;1.10;;
1721;SDS011;858;53.190;8.596;2022-08-19T10:44:01;1.60;;;1.50;;
1721;SDS011;858;53.190;8.596;2022-08-19T10:46:28;2.55;;;1.20;;
1721;SDS011;858;53.190;8.596;2022-08-19T10:48:56;1.20;;;1.10;;
1721;SDS011;858;53.190;8.596;2022-08-19T10:51:22;1.20;;;1.10;;
1721;SDS011;858;53.190;8.596;2022-08-19T10:54:06;1.45;;;1.30;;
1721;SDS011;858;53.190;8.596;2022-08-19T10:56:34;1.50;;;1.20;;
1721;SDS011;858;53.190;8.596;2022-08-19T10:59:18;2.88;;;1.30;;
1721;SDS011;858;53.190;8.596;2022-08-19T11:01:46;2.50;;;1.50;;
1721;SDS011;858;53.190;8.596;2022-08-19T11:04:12;1.42;;;1.30;;
1721;SDS011;858;53.190;8.596;2022-08-19T11:06:43;1.75;;;1.27;;
1721;SDS011;858;53.190;8.596;2022-08-19T11:09:12;1.50;;;1.35;;
1721;SDS011;858;53.190;8.596;2022-08-19T11:11:40;1.80;;;1.00;;
1721;SDS011;858;53.190;8.596;2022-08-19T11:14:06;1.40;;;1.30;;
1721;SDS011;858;53.190;8.596;2022-08-19T11:16:33;1.50;;;1.10;;
1721;SDS011;858;53.190;8.596;2022-08-19T11:19:00;1.42;;;1.30;;
1721;SDS011;858;53.190;8.596;2022-08-19T11:21:27;1.67;;;1.20;;
1721;SDS011;858;53.190;8.596;2022-08-19T11:23:56;1.13;;;1.03;;
1721;SDS011;858;53.190;8.596;2022-08-19T11:26:24;2.75;;;1.02;;
1721;SDS011;858;53.190;8.596;2022-08-19T11:28:53;2.22;;;1.20;;
1721;SDS011;858;53.190;8.596;2022-08-19T11:31:20;1.58;;;1.10;;
1721;SDS011;858;53.190;8.596;2022-08-19T11:33:47;1.63;;;1.17;;
1721;SDS011;858;53.190;8.596;2022-08-19T11:36:15;4.40;;;1.27;;
1721;SDS011;858;53.190;8.596;2022-08-19T11:38:42;2.10;;;1.33;;
1721;SDS011;858;53.190;8.596;2022-08-19T11:41:10;1.58;;;1.10;;
1721;SDS011;858;53.190;8.596;2022-08-19T11:43:37;1.35;;;1.00;;
1721;SDS011;858;53.190;8.596;2022-08-19T11:46:06;1.80;;;1.30;;
1721;SDS011;858;53.190;8.596;2022-08-19T11:48:33;2.10;;;1.40;;
1721;SDS011;858;53.190;8.596;2022-08-19T11:51:03;1.33;;;1.23;;
1721;SDS011;858;53.190;8.596;2022-08-19T11:53:31;2.10;;;1.40;;
1721;SDS011;858;53.190;8.596;2022-08-19T11:55:57;1.27;;;1.17;;
1721;SDS011;858;53.190;8.596;2022-08-19T11:58:24;1.40;;;1.30;;
1721;SDS011;858;53.190;8.596;2022-08-19T12:00:51;2.13;;;1.30;;
1721;SDS011;858;53.190;8.596;2022-08-19T12:03:19;2.72;;;1.50;;
1721;SDS011;858;53.190;8.596;2022-08-19T12:05:45;1.52;;;1.20;;
1721;SDS011;858;53.190;8.596;2022-08-19T12:08:12;2.13;;;1.20;;
1721;SDS011;858;53.190;8.596;2022-08-19T12:10:40;2.72;;;1.02;;
1721;SDS011;858;53.190;8.596;2022-08-19T12:13:07;1.20;;;1.10;;
1721;SDS011;858;53.190;8.596;2022-08-19T12:15:35;7.30;;;1.40;;
1721;SDS011;858;53.190;8.596;2022-08-19T12:18:01;1.33;;;1.10;;
1721;SDS011;858;53.190;8.596;2022-08-19T12:20:29;1.60;;;1.27;;
1721;SDS011;858;53.190;8.596;2022-08-19T12:22:56;1.70;;;1.20;;
1721;SDS011;858;53.190;8.596;2022-08-19T12:25:22;2.20;;;1.40;;
1721;SDS011;858;53.190;8.596;2022-08-19T12:27:48;1.30;;;1.20;;
1721;SDS011;858;53.190;8.596;2022-08-19T12:30:15;1.63;;;1.35;;
1721;SDS011;858;53.190;8.596;2022-08-19T12:32:41;1.40;;;1.30;;
1721;SDS011;858;53.190;8.596;2022-08-19T12:35:08;1.33;;;1.23;;
1721;SDS011;858;53.190;8.596;2022-08-19T12:37:37;1.58;;;1.10;;
1721;SDS011;858;53.190;8.596;2022-08-19T12:40:07;1.20;;;1.10;;
1721;SDS011;858;53.190;8.596;2022-08-19T12:42:33;1.73;;;1.50;;
1721;SDS011;858;53.190;8.596;2022-08-19T12:44:59;1.30;;;1.20;;
1721;SDS011;858;53.190;8.596;2022-08-19T12:47:26;1.30;;;1.20;;
1721;SDS011;858;53.190;8.596;2022-08-19T12:49:52;1.40;;;1.30;;
1721;SDS011;858;53.190;8.596;2022-08-19T12:52:19;1.58;;;1.48;;
1721;SDS011;858;53.190;8.596;2022-08-19T12:54:47;1.50;;;1.40;;
1721;SDS011;858;53.190;8.596;2022-08-19T12:57:14;3.63;;;1.80;;
1721;SDS011;858;53.190;8.596;2022-08-19T12:59:40;2.30;;;1.50;;
1721;SDS011;858;53.190;8.596;2022-08-19T13:02:07;1.40;;;1.30;;
1721;SDS011;858;53.190;8.596;2022-08-19T13:04:34;1.63;;;1.20;;
1721;SDS011;858;53.190;8.596;2022-08-19T13:07:05;1.50;;;1.40;;
1721;SDS011;858;53.190;8.596;2022-08-19T13:09:32;1.85;;;1.50;;
1721;SDS011;858;53.190;8.596;2022-08-19T13:12:00;2.00;;;1.40;;
1721;SDS011;858;53.190;8.596;2022-08-19T13:14:27;1.53;;;1.43;;
1721;SDS011;858;53.190;8.596;2022-08-19T13:16:55;2.10;;;1.27;;
1721;SDS011;858;53.190;8.596;2022-08-19T13:19:22;1.70;;;1.60;;
1721;SDS011;858;53.190;8.596;2022-08-19T13:21:49;1.60;;;1.50;;
1721;SDS011;858;53.190;8.596;2022-08-19T13:24:16;1.67;;;1.30;;
1721;SDS011;858;53.190;8.596;2022-08-19T13:26:42;2.80;;;1.53;;
1721;SDS011;858;53.190;8.596;2022-08-19T13:29:11;2.15;;;1.50;;
1721;SDS011;858;53.190;8.596;2022-08-19T13:31:55;2.40;;;1.40;;
1721;SDS011;858;53.190;8.596;2022-08-19T13:34:39;2.10;;;1.60;;
1721;SDS011;858;53.190;8.596;2022-08-19T13:37:05;2.80;;;1.87;;
1721;SDS011;858;53.190;8.596;2022-08-19T13:39:32;3.40;;;1.80;;
1721;SDS011;858;53.190;8.596;2022-08-19T13:41:59;1.67;;;1.57;;
1721;SDS011;858;53.190;8.596;2022-08-19T13:44:27;1.85;;;1.50;;
1721;SDS011;858;53.190;8.596;2022-08-19T13:46:55;3.70;;;2.00;;
1721;SDS011;858;53.190;8.596;2022-08-19T13:49:27;2.92;;;1.80;;
1721;SDS011;858;53.190;8.596;2022-08-19T13:51:55;1.67;;;1.50;;
1721;SDS011;858;53.190;8.596;2022-08-19T13:54:22;2.90;;;1.80;;
1721;SDS011;858;53.190;8.596;2022-08-19T13:56:48;1.70;;;1.60;;
1721;SDS011;858;53.190;8.596;2022-08-19T13:59:15;1.70;;;1.60;;
1721;SDS011;858;53.190;8.596;2022-08-19T14:01:43;1.58;;;1.48;;
1721;SDS011;858;53.190;8.596;2022-08-19T14:04:10;2.75;;;1.77;;
1721;SDS011;858;53.190;8.596;2022-08-19T14:06:37;1.80;;;1.70;;
1721;SDS011;858;53.190;8.596;2022-08-19T14:09:03;1.80;;;1.70;;
1721;SDS011;858;53.190;8.596;2022-08-19T14:11:30;2.63;;;1.70;;
1721;SDS011;858;53.190;8.596;2022-08-19T14:13:57;2.53;;;1.80;;
1721;SDS011;858;53.190;8.596;2022-08-19T14:16:23;1.80;;;1.70;;
1721;SDS011;858;53.190;8.596;2022-08-19T14:18:51;2.53;;;2.00;;
1721;SDS011;858;53.190;8.596;2022-08-19T14:21:19;1.85;;;1.70;;
1721;SDS011;858;53.190;8.596;2022-08-19T14:23:46;1.70;;;1.60;;
1721;SDS011;858;53.190;8.596;2022-08-19T14:26:13;2.33;;;1.90;;
1721;SDS011;858;53.190;8.596;2022-08-19T14:28:41;2.13;;;1.93;;
1721;SDS011;858;53.190;8.596;2022-08-19T14:31:07;2.30;;;2.10;;
1721;SDS011;858;53.190;8.596;2022-08-19T14:33:34;1.70;;;1.60;;
1721;SDS011;858;53.190;8.596;2022-08-19T14:36:04;2.80;;;1.83;;
1721;SDS011;858;53.190;8.596;2022-08-19T14:38:32;2.00;;;1.80;;
1721;SDS011;858;53.190;8.596;2022-08-19T14:41:10;2.03;;;1.85;;
1721;SDS011;858;53.190;8.596;2022-08-19T14:43:38;2.70;;;2.00;;
1721;SDS011;858;53.190;8.596;2022-08-19T14:46:06;2.30;;;2.10;;
1721;SDS011;858;53.190;8.596;2022-08-19T14:48:33;2.35;;;1.90;;
1721;SDS011;858;53.190;8.596;2022-08-19T14:51:02;2.90;;;2.00;;
1721;SDS011;858;53.190;8.596;2022-08-19T14:53:31;2.60;;;1.90;;
1721;SDS011;858;53.190;8.596;2022-08-19T14:55:58;2.40;;;2.20;;
1721;SDS011;858;53.190;8.596;2022-08-19T14:58:25;3.90;;;1.80;;
1721;SDS011;858;53.190;8.596;2022-08-19T15:00:51;2.27;;;1.90;;
1721;SDS011;858;53.190;8.596;2022-08-19T15:03:18;2.50;;;1.90;;
1721;SDS011;858;53.190;8.596;2022-08-19T15:05:44;2.00;;;1.90;;
1721;SDS011;858;53.190;8.596;2022-08-19T15:08:11;2.30;;;1.80;;
1721;SDS011;858;53.190;8.596;2022-08-19T15:10:39;1.85;;;1.70;;
1721;SDS011;858;53.190;8.596;2022-08-19T15:13:05;2.15;;;1.70;;
1721;SDS011;858;53.190;8.596;2022-08-19T15:15:32;2.38;;;1.70;;
1721;SDS011;858;53.190;8.596;2022-08-19T15:17:58;1.95;;;1.77;;
1721;SDS011;858;53.190;8.596;2022-08-19T15:20:31;2.17;;;1.90;;
1721;SDS011;858;53.190;8.596;2022-08-19T15:22:57;3.00;;;1.80;;